x

Buoy I01 - Eastern Maine Shelf (44034) Wave Buoy

12:04 - Wed 3rd Sep 2014 All times are EDT. -4 hours from GMT.

  • Sig Wave height 2.6ft
  • Peak Period 6s
  • Wind
    9mph, 11mph gusts
  • Sea Temp 57°f
  • Luft Temp 60°f
  • Sea Pressure 1006.3mb
  • Buoy I01 - Eastern Maine Shelf
  • Buoy I01 - Eastern Maine Shelf

More Historic Weather Station data

Upgrade to MSW Pro to gain access to the past 30 days of data for over 8000 Wavebouys and Weather Stations around the globe.

Join Pro

Comparision Forecast

View Surf forecast
   
Mi 09/03 12:04 2.5ft 6s 9 11 mph 1006.3mb 57f 60f
Di 09/02 11:04 2.5ft 6s 9 11 mph 1006.5mb 58f 61f
10:04 2.5ft 6s 13
mph
1007.1mb 57f 61f
9:04 2.5ft 6s 9
mph
1007.9mb 57f 60f
8:04 2.5ft 6s 9 11 mph 1008.3mb 58f 60f
7:04 2.5ft 6s 9
mph
1008.4mb 58f 60f
6:04 2.5ft 8s 4 7 mph 1008.8mb 58f 60f
5:04 2.5ft 6s 7
mph
1008.9mb 58f 60f
4:04 2ft 6s 4 7 mph 1009.4mb 58f 60f
3:04 2ft 6s 7
mph
1009.7mb 58f 59f
2:04 2.5ft 6s 7 9 mph 1010.8mb 58f 60f
1:04 2.5ft 6s 7
mph
1011.6mb 59f 60f
12:04 2ft 6s 7
mph
1012.2mb 59f 60f
11:04 2.5ft 6s 7
mph
1012.8mb 59f 60f
10:04 2.5ft 8s 4
mph
1013.3mb 58f 59f
9:04 2.5ft 6s 2 4 mph 1012.9mb 57f 59f
8:04 2.5ft 6s 4
mph
1012.6mb 57f 58f
7:04 2.5ft 6s 2 4 mph 1012.7mb 58f 58f
6:04 2.5ft 6s 4 7 mph 1011.8mb 57f 58f
5:04 2.5ft 6s 7
mph
1012mb 58f 58f
4:04 2ft 6s 2 4 mph 1012.5mb 57f 58f
3:04 2ft 6s 4
mph
1012.6mb 58f 58f
2:04 2.5ft 6s 4
mph
1012.9mb 59f 59f
1:04 2ft 8s 2 4 mph 1013mb 60f 60f
12:04 2ft 8s 7 9 mph 1012.9mb 59f 60f
Mo 09/01 11:04 2ft 6s 2
mph
1013.3mb 59f 60f
10:04 2.5ft 8s 7 9 mph 1013.2mb 58f 59f
9:04 2.5ft 6s 7 9 mph 1013.1mb 58f 59f
8:04 2.5ft 6s 7 9 mph 1012.9mb 57f 59f
7:04 2.5ft 6s 7 11 mph 1013.1mb 56f 59f
6:04 3ft 6s 4 7 mph 1012.4mb 57f 60f
5:04 2.5ft 6s 7 9 mph 1011.8mb 59f 62f
4:04 3ft 6s 7 9 mph 1012mb 60f 62f
3:04 3.5ft 6s 7 9 mph 1012.3mb 58f 62f
2:04 3.5ft 6s 4
mph
1012.9mb 59f 61f
1:04 3.5ft 5s 4
mph
1013.1mb 59f 61f
12:04 3.5ft 6s 4
mph
1013mb 58f 61f
11:04 3ft 6s 4 7 mph 1013.3mb 58f 60f
10:04 3ft 6s 4 7 mph 1013.1mb 58f 60f
9:04 3ft 6s 4
mph
1013.2mb 58f 60f
8:04 3.5ft 6s 4
mph
1013.1mb 57f 59f
7:04 3ft 6s 4 7 mph 1013.3mb 58f 60f
6:04 3ft 6s 4 7 mph 1013.1mb 56f 60f
5:04 3ft 6s 7 9 mph 1012.5mb 58f 60f
4:04 3ft 6s 7 9 mph 1012.1mb 58f 60f
3:04 2.5ft 6s 9 11 mph 1011.8mb 58f 60f
2:04 2.5ft 6s 4 7 mph 1011.9mb 58f 60f
1:04 3.5ft 5s 9
mph
1012.1mb 58f 62f
12:04 3.5ft 5s 11 13 mph 1012.4mb 58f 62f
So 08/31 11:04 3.5ft 6s 7 9 mph 1012.9mb 58f 62f
10:04 3.5ft 5s 9
mph
1013.7mb 58f 61f
9:04 3.5ft 6s 9
mph
1013.4mb 58f 61f
8:04 3.5ft 5s 4
mph
1013.2mb 58f 60f
6:04 3.5ft 5s 7
mph
1013mb 57f 60f
5:04 3.5ft 5s 7
mph
1012.7mb 57f 60f
4:04 4ft 6s 16 18 mph 1012.5mb 57f 61f
3:04 4ft 5s 13 16 mph 1012.8mb 57f 61f
2:04 4.5ft 6s 7 9 mph 1013.7mb 57f 61f
1:04 4.5ft 6s 11
mph
1014mb 57f 60f
12:04 4.5ft 5s 9 11 mph 1014.5mb 57f 60f
11:04 3.5ft 6s 9 11 mph 1015.1mb 57f 60f
10:04 4ft 6s 13
mph
1015.9mb 57f 61f
9:04 3.5ft 6s 13 16 mph 1015.9mb 57f 61f
8:04 4.5ft 6s 11 13 mph 1016.4mb 57f 61f
7:04 5ft 6s 13 16 mph 1016.6mb 55f 60f
6:04 4.5ft 6s 16 18 mph 1016.6mb 56f 60f
5:04 4.5ft 6s 16 18 mph 1016.6mb 56f 60f
4:04 5ft 5s 16 18 mph 1016.6mb 56f 60f
3:04 5ft 6s 16 18 mph 1017.5mb 56f 60f
2:04 4.5ft 5s 16 18 mph 1017.8mb 56f 60f
1:04 4ft 5s 16 18 mph 1018.4mb 56f 60f
12:04 4.5ft 5s 16 18 mph 1018.8mb 56f 60f
Sa 08/30 11:04 4.5ft 5s 16 18 mph 1019.3mb 56f 60f
10:04 3ft 5s 13 18 mph 1019.7mb 56f 59f
9:04 3.5ft 5s 13 16 mph 1020.3mb 56f 59f
8:04 3.5ft 11s 13 16 mph 1020.2mb 56f 59f
7:04 2ft 5s 11 13 mph 1020.5mb 55f 59f
6:04 2ft 5s 11 13 mph 1020.9mb 56f 60f
5:04 1.6ft 4s 9 11 mph 1021.3mb 55f 60f
4:04 3ft 11s 11 13 mph 1021.8mb 56f 59f
3:04 1.3ft 4s 13 16 mph 1022.1mb 56f 60f
2:04 3ft 8s 11 13 mph 1022.9mb 56f 60f
1:04 2.5ft 11s 9 11 mph 1023.6mb 56f 60f
12:04 2.5ft 8s 11 13 mph 1024.1mb 56f 59f
11:04 2.5ft 8s 7 9 mph 1024.8mb 56f 59f
10:04 2.5ft 11s 9
mph
1025.1mb 56f 58f
9:04 2.5ft 11s 7 9 mph 1025.1mb 55f 58f
8:04 2.5ft 11s 7 9 mph 1025.2mb 55f 58f
7:04 1.6ft 11s 7 9 mph 1025.2mb 55f 57f
6:04 2.5ft 11s 7
mph
1025.2mb 55f 56f